Time;durP1;ratioP1;P1;durP2;ratioP2;P2;SDS_P1;SDS_P2;PMS_P1;PMS_P2;Temp;Humidity;BMP_temperature;BMP_pressure;BME280_temperature;BME280_humidity;BME280_pressure;Samples;Min_cycle;Max_cycle;Signal;HPM_P1;HPM_P2
2022/06/25 00:01:28;;;;;;;5.15;2.10;;;16.40;99.90;;;;;;5004894;28;20030;-57
2022/06/25 00:03:54;;;;;;;3.50;2.55;;;16.40;99.90;;;;;;5001728;28;20052;-54
2022/06/25 00:06:20;;;;;;;3.72;2.45;;;16.40;99.90;;;;;;4988901;28;20492;-60
2022/06/25 00:08:47;;;;;;;4.00;2.83;;;16.40;99.90;;;;;;5003429;28;20069;-60
2022/06/25 00:14:02;;;;;;;7.20;2.92;;;16.40;99.90;;;;;;5006010;28;20034;-60
2022/06/25 00:16:27;;;;;;;5.00;2.58;;;16.40;99.90;;;;;;5006616;28;20109;-59
2022/06/25 00:18:53;;;;;;;2.75;2.40;;;16.30;99.90;;;;;;5003063;28;20455;-59
2022/06/25 00:21:18;;;;;;;6.68;3.05;;;16.30;99.90;;;;;;5007385;28;20072;-59
2022/06/25 00:23:44;;;;;;;6.47;2.60;;;16.20;99.90;;;;;;4999769;28;20153;-57
2022/06/25 00:26:09;;;;;;;2.92;2.40;;;16.20;99.90;;;;;;5007277;28;20110;-56
2022/06/25 00:28:35;;;;;;;8.23;3.17;;;16.20;99.90;;;;;;5000091;28;20034;-59
2022/06/25 00:31:01;;;;;;;2.80;2.35;;;16.20;99.90;;;;;;5009582;28;20487;-57
2022/06/25 00:33:26;;;;;;;5.13;2.58;;;16.10;99.90;;;;;;5006291;28;20026;-58
2022/06/25 00:35:52;;;;;;;6.72;3.05;;;16.10;99.90;;;;;;5001701;28;20018;-59
2022/06/25 00:38:17;;;;;;;4.68;2.67;;;16.00;99.90;;;;;;5004597;28;20033;-56
2022/06/25 00:40:43;;;;;;;5.97;3.05;;;16.00;99.90;;;;;;5001369;28;20365;-58
2022/06/25 00:43:09;;;;;;;5.80;2.78;;;16.00;99.90;;;;;;5003700;28;20500;-59
2022/06/25 00:45:34;;;;;;;5.00;3.22;;;16.00;99.90;;;;;;5009840;28;20041;-57
2022/06/25 00:48:00;;;;;;;5.57;3.03;;;15.90;99.90;;;;;;5008965;28;20511;-56
2022/06/25 00:50:25;;;;;;;8.80;2.47;;;15.90;99.90;;;;;;5007054;28;20061;-59
2022/06/25 00:52:54;;;;;;;8.43;3.13;;;16.00;99.90;;;;;;5003857;28;20025;-60
2022/06/25 00:55:23;;;;;;;5.22;2.60;;;15.90;99.90;;;;;;5004308;28;20394;-59
2022/06/25 00:57:51;;;;;;;4.07;2.67;;;15.90;99.90;;;;;;5004406;28;20458;-57
2022/06/25 01:00:17;;;;;;;6.63;2.78;;;15.90;99.90;;;;;;5000838;28;20387;-59
2022/06/25 01:02:44;;;;;;;6.03;3.00;;;15.90;99.90;;;;;;5001096;28;20042;-57
2022/06/25 01:05:12;;;;;;;4.07;2.30;;;15.90;99.90;;;;;;5001830;28;20033;-60
2022/06/25 01:07:39;;;;;;;6.43;2.92;;;15.80;99.90;;;;;;5000431;28;20049;-57
2022/06/25 01:10:06;;;;;;;4.20;2.75;;;15.80;99.90;;;;;;5002126;28;20105;-54
2022/06/25 01:12:33;;;;;;;3.58;2.55;;;15.80;99.90;;;;;;5005516;28;20479;-59
2022/06/25 01:15:01;;;;;;;9.15;2.80;;;15.70;99.90;;;;;;5004902;28;20443;-57
2022/06/25 01:17:28;;;;;;;4.28;2.80;;;15.70;99.90;;;;;;4997836;28;20400;-57
2022/06/25 01:19:54;;;;;;;5.35;2.85;;;15.70;99.90;;;;;;4999761;28;20125;-60
2022/06/25 01:22:20;;;;;;;5.80;2.85;;;15.70;99.90;;;;;;5003856;28;20106;-56
2022/06/25 01:24:46;;;;;;;4.68;2.95;;;15.70;99.90;;;;;;5003891;28;20113;-57
2022/06/25 01:27:14;;;;;;;11.77;3.00;;;15.70;99.90;;;;;;5001978;28;20030;-54
2022/06/25 01:29:40;;;;;;;4.10;2.78;;;15.60;99.90;;;;;;5007015;28;20033;-51
2022/06/25 01:32:06;;;;;;;7.82;2.67;;;15.70;99.90;;;;;;5007765;28;20476;-59
2022/06/25 01:34:31;;;;;;;3.22;2.30;;;15.60;99.90;;;;;;5004473;28;20027;-56
2022/06/25 01:36:58;;;;;;;5.25;2.95;;;15.60;99.90;;;;;;5002967;28;20057;-57
2022/06/25 01:39:23;;;;;;;4.55;3.03;;;15.60;99.90;;;;;;5004962;28;20089;-60
2022/06/25 01:41:49;;;;;;;7.38;2.92;;;15.60;99.90;;;;;;5008156;28;20025;-58
2022/06/25 01:44:15;;;;;;;5.68;2.95;;;15.50;99.90;;;;;;4998361;28;20033;-55
2022/06/25 01:46:41;;;;;;;10.32;2.90;;;15.50;99.90;;;;;;4997214;28;20496;-58
2022/06/25 01:49:06;;;;;;;6.07;3.03;;;15.50;99.90;;;;;;5004437;28;20037;-52
2022/06/25 01:51:32;;;;;;;5.35;3.08;;;15.40;99.90;;;;;;5001713;28;20520;-57
2022/06/25 01:53:57;;;;;;;4.63;3.17;;;15.50;99.90;;;;;;5006464;28;20075;-58
2022/06/25 01:56:23;;;;;;;6.55;2.75;;;15.40;99.90;;;;;;5000944;28;20018;-54
2022/06/25 01:58:49;;;;;;;6.35;3.13;;;15.40;99.90;;;;;;5003162;28;20037;-58
2022/06/25 02:01:14;;;;;;;3.55;2.85;;;15.40;99.90;;;;;;4998405;28;20588;-58
2022/06/25 02:03:40;;;;;;;4.03;3.53;;;15.40;99.90;;;;;;5003171;28;20018;-58
2022/06/25 02:06:06;;;;;;;5.70;3.47;;;15.30;99.90;;;;;;5005871;28;20025;-60
2022/06/25 02:08:34;;;;;;;3.55;3.25;;;15.30;99.90;;;;;;5004077;28;20026;-58
2022/06/25 02:11:02;;;;;;;5.65;2.42;;;15.30;99.90;;;;;;5008717;28;20042;-59
2022/06/25 02:13:28;;;;;;;3.83;2.90;;;15.30;99.90;;;;;;4996338;28;20821;-60
2022/06/25 02:15:54;;;;;;;4.18;2.80;;;15.30;99.90;;;;;;5001479;28;20498;-58
2022/06/25 02:18:21;;;;;;;6.63;3.05;;;15.30;99.90;;;;;;4996429;28;20037;-60
2022/06/25 02:20:46;;;;;;;5.47;3.28;;;15.30;99.90;;;;;;5009262;28;20076;-56
2022/06/25 02:23:14;;;;;;;6.93;3.10;;;15.20;99.90;;;;;;5006169;28;20060;-60
2022/06/25 02:25:40;;;;;;;5.50;2.88;;;15.20;99.90;;;;;;5005881;28;20826;-59
2022/06/25 02:28:06;;;;;;;4.88;3.15;;;15.20;99.90;;;;;;5000901;28;20056;-57
2022/06/25 02:30:32;;;;;;;5.13;3.08;;;15.20;99.90;;;;;;5011259;28;20026;-57
2022/06/25 02:32:57;;;;;;;6.22;2.88;;;15.20;99.90;;;;;;5004797;28;20034;-57
2022/06/25 02:35:23;;;;;;;5.82;3.53;;;15.20;99.90;;;;;;5009090;28;20018;-57
2022/06/25 02:37:49;;;;;;;9.85;3.20;;;15.10;99.90;;;;;;5011484;28;20164;-58
2022/06/25 02:40:14;;;;;;;6.30;2.97;;;15.10;99.90;;;;;;5010151;28;20030;-56
2022/06/25 02:42:41;;;;;;;5.10;2.80;;;15.10;99.90;;;;;;5004268;28;20493;-59
2022/06/25 02:45:08;;;;;;;5.57;3.60;;;15.10;99.90;;;;;;5000976;28;20026;-55
2022/06/25 02:47:35;;;;;;;2.80;2.55;;;15.10;99.90;;;;;;5000706;28;20046;-60
2022/06/25 02:50:00;;;;;;;7.65;3.17;;;15.10;99.90;;;;;;5006344;28;20059;-58
2022/06/25 02:52:27;;;;;;;5.10;2.85;;;15.10;99.90;;;;;;5004912;28;20034;-59
2022/06/25 02:54:53;;;;;;;5.60;2.97;;;15.10;99.90;;;;;;5008421;28;20045;-59
2022/06/25 03:00:05;;;;;;;5.40;3.13;;;15.10;99.90;;;;;;5003731;28;20045;-59
2022/06/25 03:02:31;;;;;;;3.88;3.47;;;15.10;99.90;;;;;;5005113;28;20030;-59
2022/06/25 03:04:57;;;;;;;3.80;3.13;;;15.10;99.90;;;;;;5002041;28;20078;-58
2022/06/25 03:07:23;;;;;;;3.83;2.97;;;15.10;99.90;;;;;;5003438;28;20022;-57
2022/06/25 03:09:49;;;;;;;4.45;3.00;;;15.10;99.90;;;;;;5009882;28;20026;-56
2022/06/25 03:12:14;;;;;;;4.63;2.80;;;15.00;99.90;;;;;;5009878;28;20401;-54
2022/06/25 03:14:40;;;;;;;5.80;3.05;;;15.00;99.90;;;;;;5004969;28;20022;-59
2022/06/25 03:17:06;;;;;;;4.35;2.90;;;15.00;99.90;;;;;;5006597;28;20502;-60
2022/06/25 03:19:32;;;;;;;3.58;2.35;;;15.00;99.90;;;;;;5010564;28;20026;-58
2022/06/25 03:21:58;;;;;;;5.30;3.08;;;15.00;99.90;;;;;;5009632;28;20064;-58
2022/06/25 03:24:24;;;;;;;6.40;2.53;;;15.00;99.90;;;;;;4998415;28;20088;-59
2022/06/25 03:26:49;;;;;;;3.33;2.60;;;15.00;99.90;;;;;;5008762;28;20034;-57
2022/06/25 03:29:15;;;;;;;3.97;2.55;;;15.00;99.90;;;;;;5006310;28;20487;-57
2022/06/25 03:31:41;;;;;;;6.65;3.00;;;15.00;99.90;;;;;;5011186;28;20092;-59
2022/06/25 03:34:07;;;;;;;7.47;2.75;;;15.00;99.90;;;;;;4996884;28;20024;-59
2022/06/25 03:36:33;;;;;;;3.85;2.95;;;15.10;99.90;;;;;;5003041;28;20037;-56
2022/06/25 03:38:59;;;;;;;3.58;3.05;;;15.10;99.90;;;;;;5003679;28;20571;-59
2022/06/25 03:41:37;;;;;;;7.93;3.15;;;15.10;99.90;;;;;;5007329;28;20049;-60
2022/06/25 03:44:08;;;;;;;6.05;2.72;;;15.10;99.90;;;;;;5011424;28;20025;-54
2022/06/25 03:46:36;;;;;;;6.15;3.25;;;15.20;99.90;;;;;;5011488;28;20057;-59
2022/06/25 03:49:03;;;;;;;5.82;2.60;;;15.20;99.90;;;;;;5006374;28;20120;-58
2022/06/25 03:51:29;;;;;;;5.78;2.58;;;15.20;99.90;;;;;;5007592;28;20103;-56
2022/06/25 03:53:55;;;;;;;3.50;2.40;;;15.30;99.90;;;;;;5006161;28;20479;-59
2022/06/25 03:56:21;;;;;;;8.60;2.88;;;15.30;99.90;;;;;;5007374;28;20108;-57
2022/06/25 03:58:47;;;;;;;6.18;2.72;;;15.30;99.90;;;;;;5003436;28;20511;-58
2022/06/25 04:01:14;;;;;;;6.88;3.17;;;15.40;99.90;;;;;;4999118;28;20384;-51
2022/06/25 04:03:40;;;;;;;4.57;2.78;;;15.40;99.90;;;;;;5007273;28;20018;-59
2022/06/25 04:06:06;;;;;;;9.20;2.72;;;15.50;99.90;;;;;;5008867;28;20025;-55
2022/06/25 04:08:32;;;;;;;5.80;2.58;;;15.50;99.90;;;;;;4998689;28;20091;-57
2022/06/25 04:10:58;;;;;;;5.25;2.38;;;15.60;99.90;;;;;;5006727;28;20542;-57
2022/06/25 04:13:24;;;;;;;3.85;2.40;;;15.60;99.90;;;;;;4997227;28;20022;-56
2022/06/25 04:15:50;;;;;;;3.33;2.13;;;15.70;99.90;;;;;;5007357;28;20100;-57
2022/06/25 04:18:16;;;;;;;4.65;2.60;;;15.80;99.90;;;;;;5005273;28;20153;-59
2022/06/25 04:20:41;;;;;;;4.78;2.60;;;15.80;99.90;;;;;;5003869;28;20484;-59
2022/06/25 04:23:07;;;;;;;5.15;2.53;;;15.90;99.90;;;;;;4993985;28;20034;-54
2022/06/25 04:25:33;;;;;;;13.63;2.38;;;16.00;99.90;;;;;;5002258;28;20018;-57
2022/06/25 04:30:43;;;;;;;3.30;2.22;;;16.10;99.90;;;;;;5006457;28;20068;-59
2022/06/25 04:33:08;;;;;;;7.38;2.38;;;16.20;99.90;;;;;;5007006;28;20061;-56
2022/06/25 04:35:34;;;;;;;5.32;2.40;;;16.50;99.90;;;;;;5008779;28;20026;-55
2022/06/25 04:38:00;;;;;;;8.98;2.17;;;17.00;99.90;;;;;;5002229;28;20030;-59
2022/06/25 04:40:28;;;;;;;5.25;1.35;;;18.40;99.90;;;;;;5002983;28;20415;-58
2022/06/25 04:42:53;;;;;;;3.50;1.17;;;19.70;99.90;;;;;;5001775;28;20184;-61
2022/06/25 04:45:19;;;;;;;5.03;1.75;;;21.10;99.90;;;;;;4998651;28;20704;-58
2022/06/25 04:47:45;;;;;;;2.88;0.75;;;22.90;99.90;;;;;;5006217;28;20038;-60
2022/06/25 04:50:11;;;;;;;2.63;1.20;;;23.90;99.90;;;;;;5004325;28;20060;-59
2022/06/25 04:52:36;;;;;;;5.57;1.10;;;24.30;99.90;;;;;;5004386;28;20037;-61
2022/06/25 04:55:02;;;;;;;10.23;1.65;;;24.50;99.40;;;;;;5009149;28;20029;-62
2022/06/25 04:57:28;;;;;;;1.35;0.80;;;25.20;99.20;;;;;;5007012;28;20045;-61
2022/06/25 04:59:53;;;;;;;5.18;0.88;;;26.70;95.30;;;;;;5004264;28;20022;-61
2022/06/25 05:02:19;;;;;;;2.15;0.80;;;28.10;91.80;;;;;;5000420;28;20748;-61
2022/06/25 05:04:45;;;;;;;4.13;1.35;;;28.10;91.40;;;;;;5007891;28;20701;-61
2022/06/25 05:07:11;;;;;;;5.90;1.10;;;29.10;86.30;;;;;;5004707;28;20026;-57
2022/06/25 05:09:37;;;;;;;2.38;0.80;;;29.40;84.20;;;;;;5009181;28;20057;-61
2022/06/25 05:12:03;;;;;;;5.25;0.98;;;29.90;81.70;;;;;;5002854;28;20040;-60
2022/06/25 05:14:28;;;;;;;2.40;0.80;;;29.70;82.60;;;;;;5006167;28;20053;-59
2022/06/25 05:16:54;;;;;;;1.38;0.80;;;30.70;79.70;;;;;;5008674;28;20452;-55
2022/06/25 05:19:20;;;;;;;2.10;1.00;;;31.40;76.40;;;;;;5006013;28;20030;-61
2022/06/25 05:21:46;;;;;;;6.28;1.00;;;30.90;75.80;;;;;;5005731;28;20118;-61
2022/06/25 05:24:12;;;;;;;4.97;1.02;;;30.60;75.80;;;;;;5005460;28;20508;-59
2022/06/25 05:26:37;;;;;;;3.72;1.05;;;30.50;73.00;;;;;;4997425;28;20613;-62
2022/06/25 05:29:03;;;;;;;2.92;1.30;;;30.30;75.90;;;;;;4997632;28;20100;-61
2022/06/25 05:31:28;;;;;;;2.10;1.02;;;30.90;75.00;;;;;;5005332;28;20029;-59
2022/06/25 05:33:54;;;;;;;8.25;2.08;;;31.70;72.90;;;;;;4994819;28;20072;-61
2022/06/25 05:36:20;;;;;;;2.53;1.08;;;31.70;70.60;;;;;;5006618;28;20029;-61
2022/06/25 05:38:45;;;;;;;4.35;1.35;;;30.80;72.50;;;;;;4998763;28;20029;-62
2022/06/25 05:41:11;;;;;;;3.70;0.90;;;30.90;73.50;;;;;;5006165;28;20033;-56
2022/06/25 05:43:38;;;;;;;2.22;0.85;;;31.50;71.90;;;;;;5001921;28;20483;-60
2022/06/25 05:46:05;;;;;;;3.65;1.08;;;31.20;71.50;;;;;;5000107;28;20022;-60
2022/06/25 05:48:31;;;;;;;3.47;1.30;;;32.20;71.00;;;;;;5003950;28;20034;-62
2022/06/25 05:50:57;;;;;;;2.75;1.15;;;32.90;69.70;;;;;;5001724;28;20022;-61
2022/06/25 05:53:23;;;;;;;4.03;1.00;;;32.90;68.50;;;;;;5002236;28;20044;-60
2022/06/25 05:55:49;;;;;;;2.40;1.02;;;33.40;68.10;;;;;;5003437;28;20495;-60
2022/06/25 05:58:15;;;;;;;4.38;0.90;;;33.30;68.30;;;;;;5002869;28;20112;-61
2022/06/25 06:00:41;;;;;;;3.85;1.10;;;34.00;66.60;;;;;;5009725;28;20530;-61
2022/06/25 06:03:06;;;;;;;4.32;1.23;;;33.00;67.60;;;;;;5008215;28;20057;-60
2022/06/25 06:05:32;;;;;;;6.95;1.23;;;34.00;64.60;;;;;;5008004;28;20022;-62
2022/06/25 06:07:58;;;;;;;4.93;1.00;;;33.10;67.30;;;;;;5008256;28;20029;-61
2022/06/25 06:10:24;;;;;;;5.93;1.10;;;33.50;65.20;;;;;;5011644;28;20037;-61
2022/06/25 06:12:49;;;;;;;2.92;1.20;;;31.90;66.40;;;;;;5004144;28;20022;-59
2022/06/25 06:15:15;;;;;;;3.63;1.38;;;32.00;69.40;;;;;;5004873;28;20056;-61
2022/06/25 06:17:41;;;;;;;2.58;1.10;;;31.30;67.30;;;;;;4995855;28;20022;-61
2022/06/25 06:20:07;;;;;;;3.10;1.10;;;30.70;68.40;;;;;;5002593;28;20480;-60
2022/06/25 06:22:33;;;;;;;9.73;1.40;;;31.60;69.30;;;;;;5004742;28;20059;-61
2022/06/25 06:24:58;;;;;;;4.30;1.15;;;32.90;67.10;;;;;;5004304;28;20037;-61
2022/06/25 06:27:24;;;;;;;5.28;1.70;;;32.20;68.10;;;;;;4997639;28;20041;-61
2022/06/25 06:29:50;;;;;;;5.38;1.25;;;32.60;67.60;;;;;;5010044;28;20373;-62
2022/06/25 06:32:16;;;;;;;2.17;1.20;;;33.60;66.40;;;;;;5009016;28;20490;-61
2022/06/25 06:34:42;;;;;;;4.25;1.60;;;34.40;64.90;;;;;;4997376;28;20115;-61
2022/06/25 06:37:08;;;;;;;2.22;1.13;;;34.50;62.10;;;;;;5005935;28;20112;-62
2022/06/25 06:39:33;;;;;;;3.97;1.40;;;35.00;61.90;;;;;;5010813;28;20108;-59
2022/06/25 06:41:59;;;;;;;7.03;1.42;;;33.30;63.00;;;;;;5005351;28;20129;-61
2022/06/25 06:44:25;;;;;;;2.92;1.38;;;32.90;63.30;;;;;;5000945;28;20041;-60
2022/06/25 06:46:50;;;;;;;2.15;1.10;;;33.20;65.50;;;;;;5004832;28;20026;-61
2022/06/25 06:49:16;;;;;;;5.25;1.85;;;34.20;63.10;;;;;;5004657;28;20404;-61
2022/06/25 06:51:42;;;;;;;5.90;1.75;;;34.00;62.80;;;;;;5008484;28;20057;-61
2022/06/25 06:54:07;;;;;;;5.78;1.20;;;35.60;60.50;;;;;;5010723;28;20034;-61
2022/06/25 06:56:33;;;;;;;3.78;1.30;;;34.70;59.80;;;;;;5008161;28;20022;-60
2022/06/25 06:58:59;;;;;;;5.82;1.70;;;34.90;60.50;;;;;;5003157;28;20022;-61
2022/06/25 07:01:25;;;;;;;1.92;1.23;;;35.60;59.40;;;;;;5004145;28;20554;-61
2022/06/25 07:03:51;;;;;;;2.17;1.50;;;35.10;61.00;;;;;;5004446;28;20026;-61
2022/06/25 07:06:17;;;;;;;9.00;1.98;;;34.60;59.30;;;;;;5003243;28;20034;-55
2022/06/25 07:08:43;;;;;;;6.55;1.50;;;35.40;60.30;;;;;;4995642;28;20245;-61
2022/06/25 07:13:53;;;;;;;6.90;1.20;;;35.60;57.20;;;;;;5000941;28;20066;-61
2022/06/25 07:16:20;;;;;;;3.85;1.08;;;35.70;58.40;;;;;;5004592;28;20053;-61
2022/06/25 07:18:45;;;;;;;3.60;1.30;;;36.20;58.30;;;;;;5001947;28;20025;-62
2022/06/25 07:21:11;;;;;;;4.13;1.25;;;36.00;57.00;;;;;;5001822;28;20037;-60
2022/06/25 07:23:37;;;;;;;4.07;1.10;;;34.00;58.90;;;;;;5003303;28;20033;-61
2022/06/25 07:26:03;;;;;;;3.42;1.15;;;34.40;60.20;;;;;;5005318;28;20117;-59
2022/06/25 07:28:29;;;;;;;6.93;1.40;;;35.60;58.50;;;;;;5002148;28;20121;-61
2022/06/25 07:30:55;;;;;;;4.50;1.33;;;36.10;57.60;;;;;;5009776;28;20475;-60
2022/06/25 07:33:20;;;;;;;3.92;1.15;;;36.10;57.40;;;;;;5003964;28;20400;-59
2022/06/25 07:35:46;;;;;;;4.18;1.30;;;36.50;57.50;;;;;;5015081;28;20017;-60
2022/06/25 07:38:11;;;;;;;5.07;1.30;;;36.10;57.10;;;;;;5000922;28;20030;-61
2022/06/25 07:40:37;;;;;;;5.20;1.48;;;36.40;57.40;;;;;;5004558;28;20043;-61
2022/06/25 07:43:03;;;;;;;6.65;1.27;;;37.20;55.90;;;;;;5010519;28;20037;-58
2022/06/25 07:45:29;;;;;;;2.47;1.42;;;37.00;54.90;;;;;;5008139;28;20056;-60
2022/06/25 07:47:54;;;;;;;4.30;1.70;;;36.70;56.80;;;;;;5008045;28;20467;-61
2022/06/25 07:53:04;;;;;;;3.13;1.20;;;34.70;57.40;;;;;;5002875;28;20160;-60
2022/06/25 07:55:30;;;;;;;3.70;0.95;;;35.50;56.70;;;;;;5009943;28;20112;-59
2022/06/25 07:57:56;;;;;;;8.48;1.50;;;36.40;55.30;;;;;;4999224;28;20030;-61
2022/06/25 08:00:22;;;;;;;7.35;1.58;;;35.80;56.00;;;;;;5002497;28;20049;-60
2022/06/25 08:02:48;;;;;;;5.20;1.20;;;34.20;56.70;;;;;;5006126;28;20065;-61
2022/06/25 08:05:14;;;;;;;4.38;1.02;;;34.30;56.90;;;;;;5009905;28;20392;-60
2022/06/25 08:07:39;;;;;;;3.90;1.27;;;33.50;58.30;;;;;;5000635;28;20048;-61
2022/06/25 08:10:06;;;;;;;6.43;2.05;;;33.20;57.70;;;;;;5008369;28;20022;-62
2022/06/25 08:12:32;;;;;;;4.50;1.48;;;33.40;57.60;;;;;;4994750;28;20157;-60
2022/06/25 08:14:59;;;;;;;2.60;1.00;;;33.10;57.90;;;;;;5004009;28;20037;-59
2022/06/25 08:17:24;;;;;;;3.83;1.27;;;33.30;58.00;;;;;;5005904;28;20031;-61
2022/06/25 08:19:50;;;;;;;4.88;1.35;;;34.10;58.50;;;;;;5009703;28;20032;-63
2022/06/25 08:22:16;;;;;;;8.02;1.33;;;34.30;57.10;;;;;;5006433;28;20026;-60
2022/06/25 08:24:41;;;;;;;2.65;1.08;;;34.80;58.40;;;;;;5002822;28;20057;-61
2022/06/25 08:27:07;;;;;;;2.67;1.38;;;34.10;56.80;;;;;;5008423;28;20088;-61
2022/06/25 08:29:32;;;;;;;2.13;1.00;;;34.30;55.70;;;;;;5010527;28;20478;-61
2022/06/25 08:31:58;;;;;;;5.07;1.45;;;34.40;56.00;;;;;;5008248;28;20040;-61
2022/06/25 08:34:24;;;;;;;6.35;1.17;;;34.10;58.30;;;;;;5005689;28;20076;-61
2022/06/25 08:36:49;;;;;;;2.25;1.20;;;33.40;58.70;;;;;;5006321;28;20061;-60
2022/06/25 08:39:15;;;;;;;6.95;1.48;;;32.80;59.80;;;;;;4998726;28;20040;-60
2022/06/25 08:41:42;;;;;;;2.45;1.23;;;32.10;59.60;;;;;;5005649;28;20092;-59
2022/06/25 08:44:08;;;;;;;3.13;1.25;;;32.10;62.70;;;;;;5002963;28;20025;-58
2022/06/25 08:46:34;;;;;;;4.55;1.88;;;31.70;59.70;;;;;;4995948;28;20121;-61
2022/06/25 08:49:00;;;;;;;6.10;1.30;;;30.90;61.80;;;;;;4996487;28;20044;-58
2022/06/25 08:51:28;;;;;;;4.10;1.20;;;30.50;63.30;;;;;;4998193;28;20041;-58
2022/06/25 08:53:55;;;;;;;8.68;1.52;;;30.70;64.30;;;;;;5000814;28;20443;-60
2022/06/25 08:56:21;;;;;;;6.50;2.28;;;31.60;64.50;;;;;;5007492;28;20044;-58
2022/06/25 08:58:47;;;;;;;4.78;1.90;;;30.70;61.40;;;;;;5004296;28;20721;-60
2022/06/25 09:01:13;;;;;;;8.35;1.42;;;30.30;63.90;;;;;;5006260;28;20041;-58
2022/06/25 09:03:39;;;;;;;6.00;1.60;;;30.20;63.30;;;;;;5007082;28;20026;-60
2022/06/25 09:06:18;;;;;;;6.95;1.02;;;30.90;67.70;;;;;;5002234;28;20026;-60
2022/06/25 09:09:05;;;;;;;4.80;1.13;;;31.70;61.40;;;;;;5002857;28;20032;-60
2022/06/25 09:11:30;;;;;;;4.78;1.30;;;32.50;62.60;;;;;;5000998;28;20038;-61
2022/06/25 09:14:26;;;;;;;4.53;0.98;;;32.00;61.10;;;;;;4997693;28;20030;-58
2022/06/25 09:17:12;;;;;;;8.77;1.63;;;31.40;59.80;;;;;;5001354;28;20034;-59
2022/06/25 09:19:48;;;;;;;5.63;1.10;;;30.30;63.40;;;;;;5007433;28;20038;-60
2022/06/25 09:22:20;;;;;;;10.32;1.25;;;30.20;63.50;;;;;;5007427;28;20049;-58
2022/06/25 09:24:54;;;;;;;3.22;1.15;;;30.40;64.80;;;;;;5006144;28;20102;-60
2022/06/25 09:27:35;;;;;;;6.10;1.30;;;30.30;61.80;;;;;;4999343;28;20034;-60
2022/06/25 09:30:09;;;;;;;3.83;1.33;;;30.40;63.70;;;;;;4998439;28;20034;-59
2022/06/25 09:32:43;;;;;;;5.80;1.45;;;30.30;64.60;;;;;;5003998;28;20026;-60
2022/06/25 09:35:10;;;;;;;6.78;1.25;;;31.20;65.00;;;;;;5006206;28;20030;-60
2022/06/25 09:37:36;;;;;;;8.98;1.15;;;31.70;60.90;;;;;;5007553;28;20022;-60
2022/06/25 09:40:04;;;;;;;3.17;0.88;;;32.30;61.60;;;;;;5005073;28;21839;-58
2022/06/25 09:42:34;;;;;;;5.03;1.20;;;32.40;59.20;;;;;;5008651;28;20091;-60
2022/06/25 09:45:09;;;;;;;2.53;1.25;;;32.00;60.00;;;;;;5008340;28;20034;-60
2022/06/25 09:47:39;;;;;;;5.38;1.20;;;31.90;59.50;;;;;;5004690;28;20080;-60
2022/06/25 09:50:08;;;;;;;6.20;1.20;;;32.40;58.30;;;;;;5009727;28;20079;-60
2022/06/25 09:52:36;;;;;;;2.42;0.95;;;33.10;58.10;;;;;;5007620;28;20034;-60
2022/06/25 09:55:02;;;;;;;3.10;1.30;;;33.50;56.10;;;;;;5009470;28;20029;-59
2022/06/25 09:57:29;;;;;;;1.98;1.00;;;32.10;58.10;;;;;;5004714;28;20034;-59
2022/06/25 09:59:58;;;;;;;2.88;1.10;;;31.70;59.90;;;;;;5006623;28;20034;-60
2022/06/25 10:02:27;;;;;;;3.75;1.20;;;31.50;59.30;;;;;;5006822;28;20050;-60
2022/06/25 10:04:57;;;;;;;4.18;1.17;;;31.20;59.80;;;;;;5008543;28;20117;-61
2022/06/25 10:07:59;;;;;;;2.13;1.02;;;31.30;62.40;;;;;;5005494;28;20061;-60
2022/06/25 10:10:20;;;;;;;3.10;1.08;;;31.50;61.20;;;;;;5005824;28;20033;-60
2022/06/25 10:12:51;;;;;;;5.13;1.23;;;32.00;59.90;;;;;;5008367;28;20026;-59
2022/06/25 10:15:18;;;;;;;3.60;1.20;;;31.40;60.00;;;;;;5006634;28;20014;-59
2022/06/25 10:17:46;;;;;;;4.10;0.90;;;31.80;60.90;;;;;;5002722;28;20022;-60
2022/06/25 10:20:13;;;;;;;6.00;1.20;;;31.70;61.80;;;;;;5008331;28;20116;-60
2022/06/25 10:22:39;;;;;;;10.73;1.30;;;31.70;60.50;;;;;;5007368;28;20040;-59
2022/06/25 10:25:10;;;;;;;4.18;1.15;;;31.10;60.70;;;;;;5008427;28;20045;-59
2022/06/25 10:27:43;;;;;;;4.78;1.33;;;30.90;59.90;;;;;;5008257;28;20022;-60
2022/06/25 10:30:10;;;;;;;2.63;1.00;;;30.40;60.10;;;;;;5005768;28;20065;-60
2022/06/25 10:32:49;;;;;;;3.95;1.30;;;29.70;60.90;;;;;;5006668;28;20022;-54
2022/06/25 10:35:35;;;;;;;2.05;0.85;;;29.30;63.30;;;;;;5004817;28;20033;-58
2022/06/25 10:38:04;;;;;;;4.70;1.50;;;29.20;63.30;;;;;;5005141;28;20109;-60
2022/06/25 10:40:46;;;;;;;9.82;1.45;;;28.90;68.20;;;;;;5009228;28;20113;-59
2022/06/25 10:43:37;;;;;;;2.97;1.15;;;29.20;64.50;;;;;;5008703;28;20443;-55
2022/06/25 10:46:22;;;;;;;3.70;1.25;;;29.30;64.10;;;;;;5010657;28;20663;-58
2022/06/25 10:49:08;;;;;;;5.10;0.98;;;29.50;65.30;;;;;;5006782;28;20404;-59
2022/06/25 10:51:39;;;;;;;4.35;1.17;;;29.70;64.10;;;;;;5011189;28;20042;-57
2022/06/25 10:54:09;;;;;;;6.65;1.20;;;29.20;64.50;;;;;;5009848;28;20426;-60
2022/06/25 10:56:47;;;;;;;2.45;0.82;;;29.40;63.90;;;;;;5012037;28;20038;-59
2022/06/25 10:59:37;;;;;;;3.75;1.00;;;29.50;64.30;;;;;;5008116;28;20033;-52
2022/06/25 11:02:07;;;;;;;3.00;0.90;;;29.20;64.30;;;;;;5011847;28;20120;-57
2022/06/25 11:04:34;;;;;;;3.58;1.20;;;29.00;64.30;;;;;;5011900;28;20034;-58
2022/06/25 11:07:18;;;;;;;4.90;1.10;;;29.20;67.00;;;;;;5010684;28;20044;-57
2022/06/25 11:10:01;;;;;;;6.07;1.33;;;29.30;66.30;;;;;;5009094;28;20496;-60
2022/06/25 11:12:34;;;;;;;4.07;1.15;;;29.30;63.80;;;;;;5001936;28;20109;-58
2022/06/25 11:15:04;;;;;;;3.13;1.20;;;29.00;67.00;;;;;;5010575;28;20102;-58
2022/06/25 11:17:30;;;;;;;1.88;1.00;;;29.60;66.70;;;;;;5009974;28;20080;-60
2022/06/25 11:20:22;;;;;;;2.70;1.13;;;29.70;62.90;;;;;;5012197;28;20030;-60
2022/06/25 11:22:50;;;;;;;3.60;1.13;;;29.50;65.60;;;;;;5005374;28;20117;-60
2022/06/25 11:30:47;;;;;;;3.88;1.17;;;28.60;64.80;;;;;;5011674;28;20048;-60
2022/06/25 11:33:15;;;;;;;3.25;1.00;;;28.40;63.10;;;;;;5005904;28;20026;-52
2022/06/25 11:35:44;;;;;;;1.70;0.95;;;28.20;64.30;;;;;;5006911;28;20026;-58
2022/06/25 11:38:20;;;;;;;3.30;1.15;;;27.80;64.90;;;;;;5012049;28;20018;-60
2022/06/25 11:40:46;;;;;;;2.45;1.10;;;28.00;66.30;;;;;;5006633;28;20031;-57
2022/06/25 11:43:13;;;;;;;3.70;1.30;;;28.20;66.30;;;;;;5011699;28;20114;-54
2022/06/25 11:45:55;;;;;;;4.68;1.10;;;28.30;67.70;;;;;;5004789;28;20026;-60
2022/06/25 11:48:28;;;;;;;6.50;1.58;;;28.50;68.30;;;;;;5008712;28;20033;-59
2022/06/25 11:50:55;;;;;;;5.47;1.15;;;28.50;66.50;;;;;;5007587;28;20400;-59
2022/06/25 11:53:21;;;;;;;6.68;1.90;;;28.60;65.90;;;;;;5008221;28;20399;-59
2022/06/25 11:56:01;;;;;;;9.70;1.40;;;28.60;66.20;;;;;;5010397;28;20022;-58
2022/06/25 11:58:31;;;;;;;2.67;0.98;;;28.10;67.00;;;;;;5008884;28;20036;-57
2022/06/25 12:00:58;;;;;;;3.92;1.45;;;28.10;65.40;;;;;;5011823;28;20057;-60
2022/06/25 12:03:25;;;;;;;2.15;1.02;;;27.70;69.10;;;;;;5005247;28;20034;-59
2022/06/25 12:05:54;;;;;;;5.95;1.17;;;27.50;68.00;;;;;;5010971;28;20109;-59
2022/06/25 12:08:22;;;;;;;3.70;1.08;;;27.40;69.00;;;;;;5005944;28;20076;-58
2022/06/25 12:10:48;;;;;;;2.85;1.30;;;27.30;68.70;;;;;;5006493;28;20035;-58
2022/06/25 12:13:15;;;;;;;4.03;1.30;;;27.10;69.60;;;;;;5001706;28;20395;-53
2022/06/25 12:15:41;;;;;;;6.65;1.02;;;26.90;71.00;;;;;;5011085;28;20076;-58
2022/06/25 12:18:07;;;;;;;2.17;1.10;;;26.70;71.90;;;;;;5008131;28;20022;-58
2022/06/25 12:20:33;;;;;;;4.97;1.30;;;26.50;71.80;;;;;;5009968;28;20089;-58
2022/06/25 12:23:00;;;;;;;2.90;1.55;;;26.70;71.40;;;;;;5009241;28;20038;-59
2022/06/25 12:25:31;;;;;;;2.80;1.27;;;26.60;70.30;;;;;;5007168;28;20515;-60
2022/06/25 12:27:57;;;;;;;5.10;1.38;;;26.70;70.80;;;;;;5007801;28;20113;-58
2022/06/25 12:30:33;;;;;;;2.10;1.20;;;26.90;70.80;;;;;;5010108;28;20026;-58
2022/06/25 12:33:14;;;;;;;2.10;1.10;;;27.30;75.40;;;;;;5008115;28;20546;-61
2022/06/25 12:35:42;;;;;;;2.95;1.30;;;27.40;70.40;;;;;;5008573;28;20029;-60
2022/06/25 12:38:10;;;;;;;2.10;1.20;;;27.40;69.60;;;;;;5009772;28;20080;-60
2022/06/25 12:40:44;;;;;;;4.45;1.30;;;27.20;69.40;;;;;;5009527;28;20029;-60
2022/06/25 12:43:11;;;;;;;6.35;1.30;;;27.10;70.60;;;;;;5010437;28;20484;-60
2022/06/25 12:45:38;;;;;;;5.88;1.23;;;27.10;70.40;;;;;;5004607;28;20125;-60
2022/06/25 12:48:06;;;;;;;1.42;0.95;;;27.40;71.30;;;;;;5009552;28;20443;-61
2022/06/25 12:50:33;;;;;;;4.82;1.15;;;27.40;70.50;;;;;;5007853;28;20034;-60
2022/06/25 12:53:13;;;;;;;3.95;1.20;;;27.40;70.80;;;;;;5006211;28;20371;-60
2022/06/25 12:55:40;;;;;;;3.40;1.40;;;27.50;70.80;;;;;;5008399;28;20030;-59
2022/06/25 12:58:08;;;;;;;5.35;1.00;;;27.80;69.00;;;;;;5006915;28;20029;-59
2022/06/25 13:00:37;;;;;;;3.53;0.90;;;27.90;70.80;;;;;;5010228;28;20104;-59
2022/06/25 13:03:05;;;;;;;1.90;0.80;;;28.10;70.20;;;;;;5008930;28;20026;-60
2022/06/25 13:05:31;;;;;;;3.83;1.27;;;28.40;69.10;;;;;;5009810;28;20105;-58
2022/06/25 13:07:56;;;;;;;3.53;1.27;;;28.50;66.10;;;;;;5003957;28;20527;-60